Time;durP1;ratioP1;P1;durP2;ratioP2;P2;SDS_P1;SDS_P2;PMS_P1;PMS_P2;Temp;Humidity;BMP_temperature;BMP_pressure;BME280_temperature;BME280_humidity;BME280_pressure;Samples;Min_cycle;Max_cycle;Signal;HPM_P1;HPM_P2
2023/10/28 00:01:30;;;;;;;0.50;0.50;;;;;;;13.00;100.00;98537.84;5092393;28;20077;-58
2023/10/28 00:03:57;;;;;;;0.50;0.50;;;;;;;12.98;100.00;98531.72;5111011;28;20023;-58
2023/10/28 00:06:22;;;;;;;0.60;0.60;;;;;;;13.04;100.00;98544.72;5105022;28;20028;-58
2023/10/28 00:08:49;;;;;;;0.50;0.50;;;;;;;12.99;100.00;98544.13;5111236;28;20870;-58
2023/10/28 00:11:16;;;;;;;0.50;0.50;;;;;;;12.98;100.00;98547.75;5112555;28;20027;-58
2023/10/28 00:13:41;;;;;;;0.50;0.50;;;;;;;13.01;100.00;98552.91;5104598;28;20702;-58
2023/10/28 00:16:07;;;;;;;0.50;0.50;;;;;;;13.04;100.00;98547.41;5091287;28;20028;-58
2023/10/28 00:18:33;;;;;;;0.50;0.50;;;;;;;13.07;100.00;98551.66;5094027;28;20016;-58
2023/10/28 00:20:58;;;;;;;0.50;0.50;;;;;;;13.05;100.00;98549.09;5087198;28;20114;-58
2023/10/28 00:23:25;;;;;;;0.50;0.50;;;;;;;13.04;100.00;98547.41;5091193;28;20107;-58
2023/10/28 00:25:50;;;;;;;0.50;0.50;;;;;;;13.02;100.00;98559.97;5091037;28;20085;-58
2023/10/28 00:28:16;;;;;;;0.60;0.60;;;;;;;13.06;100.00;98561.47;5091031;28;20020;-58
2023/10/28 00:30:41;;;;;;;0.50;0.50;;;;;;;13.07;100.00;98568.53;5089905;28;20028;-58
2023/10/28 00:33:07;;;;;;;0.60;0.60;;;;;;;13.08;100.00;98566.72;5092041;28;20422;-58
2023/10/28 00:35:33;;;;;;;0.60;0.60;;;;;;;13.05;100.00;98565.13;5088394;28;20457;-57
2023/10/28 00:37:59;;;;;;;0.50;0.50;;;;;;;13.06;100.00;98574.00;5091884;28;20032;-57
2023/10/28 00:40:31;;;;;;;0.52;0.52;;;;;;;13.00;100.00;98583.22;5089226;28;20201;-57
2023/10/28 00:42:58;;;;;;;0.60;0.60;;;;;;;12.99;100.00;98577.97;5090478;28;20024;-57
2023/10/28 00:45:24;;;;;;;0.50;0.50;;;;;;;13.01;100.00;98592.94;5089498;28;20024;-56
2023/10/28 00:47:52;;;;;;;0.60;0.60;;;;;;;13.06;100.00;98593.50;5089292;28;20466;-56
2023/10/28 00:50:18;;;;;;;0.60;0.60;;;;;;;13.06;100.00;98595.34;5092238;28;20036;-57
2023/10/28 00:52:47;;;;;;;0.50;0.50;;;;;;;13.08;100.00;98601.41;5087330;28;20028;-57
2023/10/28 00:55:13;;;;;;;0.50;0.50;;;;;;;13.08;100.00;98602.28;5082347;28;20029;-57
2023/10/28 00:57:39;;;;;;;0.50;0.50;;;;;;;13.09;100.00;98609.34;5071407;28;20036;-56
2023/10/28 01:00:36;;;;;;;0.50;0.50;;;;;;;13.09;100.00;98611.16;5073740;28;20547;-56
2023/10/28 01:03:03;;;;;;;0.50;0.50;;;;;;;13.09;100.00;98608.50;5071456;28;20447;-56
2023/10/28 01:05:30;;;;;;;0.50;0.50;;;;;;;13.09;100.00;98620.03;5078723;28;20034;-56
2023/10/28 01:07:58;;;;;;;0.50;0.50;;;;;;;13.08;100.00;98614.75;5091066;28;20030;-57
2023/10/28 01:10:31;;;;;;;0.50;0.50;;;;;;;13.05;100.00;98628.31;5088014;28;20042;-57
2023/10/28 01:12:58;;;;;;;0.57;0.57;;;;;;;13.08;100.00;98626.31;5089420;28;20028;-57
2023/10/28 01:15:24;;;;;;;0.52;0.52;;;;;;;13.12;100.00;98629.63;5107904;28;20046;-56
2023/10/28 01:17:49;;;;;;;0.52;0.52;;;;;;;13.11;100.00;98626.09;5097400;28;20032;-57
2023/10/28 01:20:15;;;;;;;0.55;0.55;;;;;;;13.11;100.00;98622.59;5089204;28;20578;-57
2023/10/28 01:22:41;;;;;;;0.60;0.60;;;;;;;13.09;100.00;98627.19;5093760;28;20040;-57
2023/10/28 01:25:07;;;;;;;0.50;0.50;;;;;;;13.10;100.00;98626.19;5110214;28;20084;-57
2023/10/28 01:27:33;;;;;;;0.50;0.50;;;;;;;13.10;100.00;98626.19;5106286;28;20471;-57
2023/10/28 01:29:59;;;;;;;0.60;0.60;;;;;;;13.12;100.00;98622.50;5110747;28;20023;-57
2023/10/28 01:32:24;;;;;;;0.50;0.50;;;;;;;13.09;100.00;98620.03;5109451;28;20023;-57
2023/10/28 01:34:53;;;;;;;0.50;0.50;;;;;;;13.11;100.00;98617.25;5093119;28;20035;-57
2023/10/28 01:37:19;;;;;;;0.50;0.50;;;;;;;13.04;100.00;98616.81;5104440;28;20024;-57
2023/10/28 01:39:52;;;;;;;0.60;0.60;;;;;;;13.08;100.00;98620.97;5111042;28;20390;-56
2023/10/28 01:42:20;;;;;;;0.50;0.50;;;;;;;13.06;100.00;98606.84;5094906;28;20090;-57
2023/10/28 01:44:47;;;;;;;0.60;0.60;;;;;;;13.10;100.00;98611.06;5090893;28;20062;-58
2023/10/28 01:47:14;;;;;;;0.50;0.50;;;;;;;13.01;100.00;98600.97;5093700;28;20035;-58
2023/10/28 01:49:40;;;;;;;0.50;0.50;;;;;;;12.98;100.00;98597.63;5108300;28;20035;-58
2023/10/28 01:52:09;;;;;;;0.50;0.50;;;;;;;13.03;100.00;98603.56;5108653;28;20031;-58
2023/10/28 01:54:35;;;;;;;0.50;0.50;;;;;;;13.03;100.00;98604.41;5110702;28;20068;-58
2023/10/28 01:57:06;;;;;;;0.50;0.50;;;;;;;13.07;100.00;98602.38;5100896;28;20049;-58
2023/10/28 01:59:35;;;;;;;0.50;0.50;;;;;;;13.06;100.00;98590.84;5095621;28;20028;-58
2023/10/28 02:02:02;;;;;;;0.60;0.60;;;;;;;13.03;100.00;98588.38;5110438;28;20028;-58
2023/10/28 02:04:29;;;;;;;0.60;0.60;;;;;;;13.06;100.00;98584.66;5109084;28;20401;-58
2023/10/28 02:06:54;;;;;;;0.50;0.50;;;;;;;13.07;100.00;98583.69;5107541;28;20027;-58
2023/10/28 02:09:20;;;;;;;0.50;0.50;;;;;;;13.05;100.00;98585.59;5109226;28;20026;-59
2023/10/28 02:11:47;;;;;;;0.52;0.52;;;;;;;13.04;100.00;98573.22;5099033;28;20111;-58
2023/10/28 02:14:13;;;;;;;0.60;0.60;;;;;;;13.01;100.00;98578.78;5093752;28;20051;-58
2023/10/28 02:16:39;;;;;;;0.50;0.50;;;;;;;13.00;100.00;98575.19;5107330;28;20051;-58
2023/10/28 02:19:05;;;;;;;0.60;0.60;;;;;;;12.99;100.00;98575.31;5088955;28;20492;-58
2023/10/28 02:21:31;;;;;;;0.60;0.60;;;;;;;12.99;100.00;98570.84;5089626;28;20515;-58
2023/10/28 02:23:57;;;;;;;0.50;0.50;;;;;;;13.02;100.00;98580.47;5102481;28;20047;-58
2023/10/28 02:26:22;;;;;;;0.50;0.50;;;;;;;13.02;100.00;98578.66;5110533;28;20023;-58
2023/10/28 02:28:48;;;;;;;0.60;0.60;;;;;;;13.02;100.00;98576.00;5106244;28;20472;-58
2023/10/28 02:31:13;;;;;;;0.60;0.60;;;;;;;13.09;100.00;98582.66;5110375;28;20387;-58
2023/10/28 02:33:39;;;;;;;0.50;0.50;;;;;;;13.13;100.00;98585.97;5110373;28;20034;-58
2023/10/28 02:36:05;;;;;;;0.60;0.60;;;;;;;13.14;100.00;98580.53;5110319;28;20024;-58
2023/10/28 02:38:32;;;;;;;0.60;0.60;;;;;;;13.11;100.00;98575.38;5105881;28;20035;-58
2023/10/28 02:40:58;;;;;;;0.60;0.60;;;;;;;13.11;100.00;98575.38;5110386;28;20023;-58
2023/10/28 02:43:23;;;;;;;0.60;0.60;;;;;;;13.10;100.00;98572.81;5107843;28;20028;-58
2023/10/28 02:45:49;;;;;;;0.60;0.60;;;;;;;13.14;100.00;98580.53;5093886;28;20074;-58
2023/10/28 02:48:14;;;;;;;0.52;0.52;;;;;;;13.12;100.00;98585.13;5089719;28;20027;-58
2023/10/28 02:50:40;;;;;;;0.50;0.50;;;;;;;13.11;100.00;98591.41;5092157;28;20390;-58
2023/10/28 02:53:06;;;;;;;0.50;0.50;;;;;;;13.11;100.00;98586.06;5097543;28;20030;-58
2023/10/28 02:55:31;;;;;;;0.50;0.50;;;;;;;13.11;100.00;98580.72;5110299;28;20475;-57
2023/10/28 02:57:56;;;;;;;0.50;0.50;;;;;;;13.08;100.00;98583.59;5109923;28;20452;-57
2023/10/28 03:00:22;;;;;;;0.50;0.50;;;;;;;13.09;100.00;98580.00;5094459;28;20024;-57
2023/10/28 03:02:48;;;;;;;0.50;0.50;;;;;;;13.10;100.00;98584.34;5088598;28;20024;-57
2023/10/28 03:05:14;;;;;;;0.60;0.60;;;;;;;13.09;100.00;98576.44;5090733;28;20026;-57
2023/10/28 03:07:41;;;;;;;0.50;0.50;;;;;;;13.06;100.00;98574.81;5088570;28;20388;-57
2023/10/28 03:10:06;;;;;;;0.50;0.50;;;;;;;13.03;100.00;98577.69;5088466;28;20040;-57
2023/10/28 03:12:32;;;;;;;0.50;0.50;;;;;;;13.00;100.00;98575.19;5090516;28;20408;-56
2023/10/28 03:14:58;;;;;;;0.50;0.50;;;;;;;12.98;100.00;98577.09;5090205;28;20048;-57
2023/10/28 03:17:24;;;;;;;0.50;0.50;;;;;;;12.96;100.00;98568.34;5091293;28;20036;-57
2023/10/28 03:19:51;;;;;;;0.50;0.50;;;;;;;12.99;100.00;98572.63;5089311;28;20039;-57
2023/10/28 03:22:16;;;;;;;0.60;0.60;;;;;;;12.99;100.00;98570.84;5090287;28;20032;-56
2023/10/28 03:24:42;;;;;;;0.60;0.60;;;;;;;12.93;100.00;98565.88;5109679;28;20031;-57
2023/10/28 03:27:07;;;;;;;0.50;0.50;;;;;;;12.96;100.00;98570.16;5103617;28;20035;-57
2023/10/28 03:29:33;;;;;;;0.43;0.43;;;;;;;12.95;100.00;98566.63;5107497;28;20102;-57
2023/10/28 03:31:58;;;;;;;0.50;0.50;;;;;;;12.89;100.00;98564.38;5109592;28;20088;-57
2023/10/28 03:34:24;;;;;;;0.50;0.50;;;;;;;12.89;100.00;98559.03;5111226;28;20650;-56
2023/10/28 03:36:49;;;;;;;0.55;0.55;;;;;;;12.87;100.00;98560.06;5097185;28;20387;-57
2023/10/28 03:39:15;;;;;;;0.50;0.50;;;;;;;12.87;100.00;98576.97;5093114;28;20487;-56
2023/10/28 03:41:40;;;;;;;0.55;0.55;;;;;;;12.87;100.00;98571.63;5095568;28;20023;-57
2023/10/28 03:44:06;;;;;;;0.50;0.50;;;;;;;12.77;100.00;98565.16;5095435;28;20032;-56
2023/10/28 03:46:31;;;;;;;0.60;0.60;;;;;;;12.87;100.00;98571.63;5093991;28;20046;-56
2023/10/28 03:48:56;;;;;;;0.50;0.50;;;;;;;12.90;100.00;98576.75;5111883;28;20096;-57
2023/10/28 03:51:22;;;;;;;0.50;0.50;;;;;;;12.90;100.00;98568.75;5113177;28;20028;-56
2023/10/28 03:53:47;;;;;;;0.60;0.60;;;;;;;12.92;100.00;98574.84;5109666;28;20044;-57
2023/10/28 03:56:13;;;;;;;0.60;0.60;;;;;;;12.90;100.00;98576.75;5112600;28;20058;-56
2023/10/28 03:58:38;;;;;;;0.50;0.50;;;;;;;12.94;100.00;98582.75;5112073;28;20024;-57
2023/10/28 04:01:03;;;;;;;0.50;0.50;;;;;;;12.88;100.00;98585.81;5111840;28;20072;-57
2023/10/28 04:03:30;;;;;;;0.60;0.60;;;;;;;12.81;100.00;98579.16;5110819;28;20471;-56
2023/10/28 04:05:56;;;;;;;0.50;0.50;;;;;;;12.67;100.00;98572.03;5111965;28;20506;-58
2023/10/28 04:08:21;;;;;;;0.50;0.50;;;;;;;12.73;100.00;98571.66;5107633;28;20035;-58
2023/10/28 04:10:47;;;;;;;0.50;0.50;;;;;;;12.69;100.00;98575.47;5111417;28;20119;-58
2023/10/28 04:13:15;;;;;;;0.60;0.60;;;;;;;12.67;100.00;98580.03;5112373;28;20822;-58
2023/10/28 04:15:41;;;;;;;0.60;0.60;;;;;;;12.55;100.00;98571.97;5112923;28;20032;-58
2023/10/28 04:18:07;;;;;;;0.60;0.60;;;;;;;12.56;100.00;98585.22;5100192;28;20039;-58
2023/10/28 04:20:34;;;;;;;0.60;0.60;;;;;;;12.50;100.00;98587.41;5092642;28;20058;-58
2023/10/28 04:23:00;;;;;;;0.50;0.50;;;;;;;12.47;100.00;98587.59;5101812;28;20035;-58
2023/10/28 04:25:27;;;;;;;0.50;0.50;;;;;;;12.43;100.00;98581.59;5112363;28;20528;-58
2023/10/28 04:27:52;;;;;;;0.60;0.60;;;;;;;12.43;100.00;98586.94;5111584;28;20459;-59
2023/10/28 04:30:18;;;;;;;0.60;0.60;;;;;;;12.46;100.00;98576.06;5111451;28;20026;-58
2023/10/28 04:32:44;;;;;;;0.50;0.50;;;;;;;12.39;100.00;98584.56;5094926;28;20024;-58
2023/10/28 04:35:12;;;;;;;0.60;0.60;;;;;;;12.41;100.00;98578.16;5104372;28;20501;-58
2023/10/28 04:37:37;;;;;;;0.50;0.50;;;;;;;12.42;100.00;98574.53;5108614;28;20032;-58
2023/10/28 04:40:06;;;;;;;0.50;0.50;;;;;;;12.45;100.00;98579.72;5111907;28;20097;-58
2023/10/28 04:42:32;;;;;;;0.52;0.52;;;;;;;12.48;100.00;98574.16;5111486;28;20023;-58
2023/10/28 04:44:57;;;;;;;0.52;0.52;;;;;;;12.50;100.00;98580.28;5111345;28;20455;-58
2023/10/28 04:47:24;;;;;;;0.60;0.60;;;;;;;12.57;100.00;98584.25;5092991;28;20719;-58
2023/10/28 04:49:49;;;;;;;0.60;0.60;;;;;;;12.62;100.00;98574.13;5090713;28;20032;-58
2023/10/28 04:52:15;;;;;;;0.50;0.50;;;;;;;12.60;100.00;98573.38;5091436;28;20119;-58
2023/10/28 04:54:40;;;;;;;0.60;0.60;;;;;;;12.68;100.00;98568.44;5109276;28;20019;-58
2023/10/28 04:57:06;;;;;;;0.50;0.50;;;;;;;12.70;100.00;98569.16;5093390;28;20035;-58
2023/10/28 04:59:31;;;;;;;0.50;0.50;;;;;;;12.69;100.00;98567.47;5090580;28;20028;-58
2023/10/28 05:01:57;;;;;;;0.50;0.50;;;;;;;12.70;100.00;98571.84;5092890;28;20056;-58
2023/10/28 05:04:25;;;;;;;0.50;0.50;;;;;;;12.69;100.00;98572.81;5090527;28;20027;-58
2023/10/28 05:06:54;;;;;;;0.60;0.60;;;;;;;12.67;99.76;98574.69;5092610;28;20051;-58
2023/10/28 05:09:22;;;;;;;0.60;0.60;;;;;;;12.71;98.63;98572.69;5091051;28;20032;-58
2023/10/28 05:11:56;;;;;;;0.60;0.60;;;;;;;12.71;98.81;98583.38;5091253;28;20023;-58
2023/10/28 05:14:25;;;;;;;0.60;0.60;;;;;;;12.73;98.61;98576.13;5093966;28;20729;-57
2023/10/28 05:16:52;;;;;;;0.60;0.60;;;;;;;12.73;98.49;98579.66;5092358;28;20032;-56
2023/10/28 05:19:20;;;;;;;0.43;0.43;;;;;;;12.76;97.57;98584.81;5091242;28;20051;-56
2023/10/28 05:21:46;;;;;;;0.60;0.60;;;;;;;12.81;97.81;98581.84;5093400;28;20552;-57
2023/10/28 05:24:11;;;;;;;0.50;0.50;;;;;;;12.83;97.10;98572.75;5107842;28;20019;-56
2023/10/28 05:26:37;;;;;;;0.50;0.50;;;;;;;12.84;97.04;98566.50;5109525;28;20139;-57
2023/10/28 05:29:03;;;;;;;0.60;0.60;;;;;;;12.89;97.31;98575.06;5093523;28;20020;-57
2023/10/28 05:31:29;;;;;;;0.50;0.50;;;;;;;12.91;96.99;98572.28;5091109;28;20193;-56
2023/10/28 05:33:55;;;;;;;0.50;0.50;;;;;;;12.93;96.52;98584.56;5093473;28;20036;-56
2023/10/28 05:36:21;;;;;;;0.60;0.60;;;;;;;12.92;96.00;98577.53;5098759;28;20115;-56
2023/10/28 05:38:46;;;;;;;0.50;0.50;;;;;;;12.91;95.04;98581.16;5093398;28;20110;-57
2023/10/28 05:41:12;;;;;;;0.50;0.50;;;;;;;13.02;94.77;98591.16;5090811;28;20476;-57
2023/10/28 05:43:38;;;;;;;0.50;0.50;;;;;;;13.06;95.04;98590.84;5091066;28;20027;-56
2023/10/28 05:46:03;;;;;;;0.50;0.50;;;;;;;13.06;94.67;98598.00;5102551;28;20051;-56
2023/10/28 05:48:29;;;;;;;0.50;0.50;;;;;;;13.11;94.68;98601.25;5110235;28;20391;-57
2023/10/28 05:50:55;;;;;;;0.50;0.50;;;;;;;13.10;94.38;98595.03;5104573;28;20649;-56
2023/10/28 05:53:22;;;;;;;0.50;0.50;;;;;;;13.14;94.55;98595.69;5099003;28;20032;-56
2023/10/28 05:55:47;;;;;;;0.50;0.50;;;;;;;13.14;94.64;98596.56;5109417;28;20682;-57
2023/10/28 05:58:13;;;;;;;0.50;0.50;;;;;;;13.11;94.24;98596.75;5092723;28;20111;-57
2023/10/28 06:00:41;;;;;;;0.50;0.50;;;;;;;13.09;94.71;98609.34;5088851;28;20024;-56
2023/10/28 06:03:06;;;;;;;0.50;0.50;;;;;;;13.14;94.77;98607.25;5094909;28;20515;-56
2023/10/28 06:05:32;;;;;;;0.50;0.50;;;;;;;13.14;94.76;98599.22;5110009;28;20041;-57
2023/10/28 06:07:57;;;;;;;0.50;0.50;;;;;;;13.14;94.85;98607.25;5110268;28;20015;-56
2023/10/28 06:10:24;;;;;;;0.50;0.50;;;;;;;13.13;94.28;98610.84;5106103;28;20614;-57
2023/10/28 06:12:50;;;;;;;0.50;0.50;;;;;;;13.09;94.54;98609.34;5109393;28;20031;-57
2023/10/28 06:15:15;;;;;;;0.60;0.60;;;;;;;13.12;94.06;98611.81;5082426;28;20082;-56
2023/10/28 06:17:41;;;;;;;0.50;0.50;;;;;;;13.12;94.19;98614.50;5086215;28;20023;-56
2023/10/28 06:20:07;;;;;;;0.47;0.47;;;;;;;13.13;93.17;98612.66;5087958;28;20034;-56
2023/10/28 06:22:34;;;;;;;0.50;0.50;;;;;;;13.16;93.54;98612.47;5085835;28;20067;-56
2023/10/28 06:24:59;;;;;;;0.50;0.50;;;;;;;13.19;93.53;98615.78;5089031;28;20024;-56
2023/10/28 06:27:24;;;;;;;0.50;0.50;;;;;;;13.22;93.99;98620.06;5087363;28;20024;-56
2023/10/28 06:29:50;;;;;;;0.50;0.50;;;;;;;13.20;93.09;98617.50;5086362;28;20541;-56
2023/10/28 06:32:15;;;;;;;0.50;0.50;;;;;;;13.20;92.92;98622.84;5069912;28;20120;-56
2023/10/28 06:34:41;;;;;;;0.50;0.50;;;;;;;13.17;93.61;98617.72;5069558;28;20025;-56
2023/10/28 06:37:06;;;;;;;0.60;0.60;;;;;;;13.16;93.53;98626.66;5090637;28;20482;-56
2023/10/28 06:39:35;;;;;;;0.50;0.50;;;;;;;13.16;93.90;98626.66;5110070;28;20110;-56
2023/10/28 06:42:01;;;;;;;0.50;0.50;;;;;;;13.16;93.23;98629.34;5109396;28;20050;-56
2023/10/28 06:44:27;;;;;;;0.47;0.47;;;;;;;13.16;93.03;98632.00;5108149;28;20102;-56
2023/10/28 06:46:53;;;;;;;0.50;0.50;;;;;;;13.24;93.50;98640.38;5070624;28;20556;-56
2023/10/28 06:49:18;;;;;;;0.50;0.50;;;;;;;13.33;93.21;98632.75;5077801;28;20098;-56
2023/10/28 06:51:43;;;;;;;0.60;0.60;;;;;;;13.39;92.70;98635.00;5078271;28;20106;-56
2023/10/28 06:54:09;;;;;;;0.50;0.50;;;;;;;13.43;92.14;98649.84;5088481;28;20110;-56
2023/10/28 06:56:34;;;;;;;0.50;0.50;;;;;;;13.45;90.87;98642.59;5068432;28;20082;-56
2023/10/28 06:59:00;;;;;;;0.50;0.50;;;;;;;13.54;90.71;98642.00;5068519;28;20032;-56
2023/10/28 07:01:26;;;;;;;0.50;0.50;;;;;;;13.83;90.64;98641.78;5071805;28;20133;-56
2023/10/28 07:03:52;;;;;;;0.50;0.50;;;;;;;14.65;86.73;98644.94;5069113;28;20134;-56
2023/10/28 07:06:17;;;;;;;0.50;0.50;;;;;;;15.25;81.50;98653.94;5071331;28;20035;-56
2023/10/28 07:08:44;;;;;;;0.40;0.40;;;;;;;14.85;80.67;98655.09;5069659;28;20094;-56
2023/10/28 07:11:13;;;;;;;0.50;0.50;;;;;;;14.55;82.39;98649.25;5073174;28;20034;-56
2023/10/28 07:13:39;;;;;;;0.50;0.50;;;;;;;14.30;85.00;98649.22;5094802;28;20075;-56
2023/10/28 07:16:05;;;;;;;0.50;0.50;;;;;;;14.12;85.97;98663.84;5113991;28;20031;-56
2023/10/28 07:18:31;;;;;;;0.40;0.40;;;;;;;14.00;87.07;98667.38;5104256;28;20028;-56
2023/10/28 07:20:57;;;;;;;0.50;0.50;;;;;;;13.95;88.34;98673.00;5114147;28;20398;-56
2023/10/28 07:23:26;;;;;;;0.50;0.50;;;;;;;14.27;88.17;98673.50;5114329;28;20020;-56
2023/10/28 07:25:55;;;;;;;0.50;0.50;;;;;;;14.46;86.27;98684.69;5113957;28;20027;-56
2023/10/28 07:28:21;;;;;;;0.40;0.40;;;;;;;14.44;85.50;98689.28;5101514;28;20398;-56
2023/10/28 07:30:51;;;;;;;0.50;0.50;;;;;;;14.51;85.50;98685.22;5093523;28;20028;-56
2023/10/28 07:33:20;;;;;;;0.50;0.50;;;;;;;14.58;84.01;98681.13;5099237;28;20024;-56
2023/10/28 07:35:50;;;;;;;0.50;0.50;;;;;;;14.59;84.55;98698.91;5113797;28;20019;-57
2023/10/28 07:38:16;;;;;;;0.40;0.40;;;;;;;14.70;85.37;98701.69;5111571;28;20027;-58
2023/10/28 07:40:42;;;;;;;0.43;0.43;;;;;;;14.88;85.22;98699.53;5097352;28;20039;-58
2023/10/28 07:43:09;;;;;;;0.50;0.50;;;;;;;15.05;82.85;98713.44;5106875;28;20027;-58
2023/10/28 07:45:34;;;;;;;0.40;0.40;;;;;;;15.21;82.79;98711.38;5112307;28;20034;-58
2023/10/28 07:47:59;;;;;;;0.40;0.40;;;;;;;15.27;82.88;98700.22;5108923;28;20475;-58
2023/10/28 07:50:25;;;;;;;0.40;0.40;;;;;;;15.48;80.59;98712.09;5092158;28;20035;-57
2023/10/28 07:52:51;;;;;;;0.40;0.40;;;;;;;15.78;79.81;98717.88;5096178;28;20019;-58
2023/10/28 07:55:16;;;;;;;0.40;0.40;;;;;;;16.16;79.58;98727.56;5110937;28;20031;-57
2023/10/28 07:57:43;;;;;;;0.40;0.40;;;;;;;17.26;74.56;98725.13;5107447;28;20027;-58
2023/10/28 08:00:11;;;;;;;0.40;0.40;;;;;;;17.80;69.03;98731.44;5110194;28;20042;-57
2023/10/28 08:02:37;;;;;;;0.40;0.40;;;;;;;17.48;71.13;98735.88;5094000;28;20031;-58
2023/10/28 08:05:03;;;;;;;0.40;0.40;;;;;;;17.58;69.43;98735.97;5091672;28;20019;-58
2023/10/28 08:07:28;;;;;;;0.35;0.35;;;;;;;16.85;70.35;98733.75;5099988;28;20036;-58
2023/10/28 08:09:54;;;;;;;0.30;0.30;;;;;;;16.96;74.02;98740.97;5112644;28;20038;-58
2023/10/28 08:12:19;;;;;;;0.40;0.40;;;;;;;17.54;69.15;98738.09;5110989;28;20027;-57
2023/10/28 08:14:47;;;;;;;0.30;0.30;;;;;;;17.82;67.96;98734.00;5094187;28;20048;-57
2023/10/28 08:17:12;;;;;;;0.30;0.30;;;;;;;18.27;65.53;98731.00;5109527;28;20023;-57
2023/10/28 08:19:38;;;;;;;0.35;0.35;;;;;;;17.83;66.83;98736.56;5101501;28;20028;-57
2023/10/28 08:22:03;;;;;;;0.40;0.40;;;;;;;17.74;70.39;98737.28;5092412;28;20058;-57
2023/10/28 08:24:29;;;;;;;0.30;0.30;;;;;;;18.74;66.59;98747.69;5111542;28;20052;-57
2023/10/28 08:26:56;;;;;;;0.30;0.30;;;;;;;20.06;61.95;98751.13;5112661;28;20031;-57
2023/10/28 08:29:23;;;;;;;0.30;0.30;;;;;;;20.92;57.45;98752.84;5097427;28;20430;-57
2023/10/28 08:31:49;;;;;;;0.30;0.30;;;;;;;21.51;57.59;98754.41;5091776;28;20032;-57
2023/10/28 08:34:15;;;;;;;0.20;0.20;;;;;;;21.91;56.75;98752.25;5093251;28;20105;-57
2023/10/28 08:36:41;;;;;;;0.30;0.30;;;;;;;22.36;53.65;98754.94;5091355;28;20032;-58
2023/10/28 08:39:07;;;;;;;0.20;0.20;;;;;;;22.32;52.63;98753.53;5090088;28;20732;-57
2023/10/28 08:41:34;;;;;;;0.20;0.20;;;;;;;22.14;52.42;98745.41;5090101;28;20071;-57
2023/10/28 08:44:05;;;;;;;0.20;0.20;;;;;;;21.42;53.58;98747.19;5099692;28;20051;-57
2023/10/28 08:46:32;;;;;;;0.20;0.20;;;;;;;20.50;56.38;98746.06;5110215;28;20051;-58
2023/10/28 08:49:01;;;;;;;0.20;0.20;;;;;;;19.79;57.57;98740.97;5101412;28;20024;-57
2023/10/28 08:51:26;;;;;;;0.25;0.25;;;;;;;19.57;59.43;98746.63;5097746;28;20031;-57
2023/10/28 08:53:55;;;;;;;0.15;0.15;;;;;;;19.43;61.12;98749.66;5104304;28;20032;-57
2023/10/28 08:56:24;;;;;;;0.20;0.20;;;;;;;19.11;62.01;98757.03;5110064;28;20044;-57
2023/10/28 08:58:52;;;;;;;0.30;0.30;;;;;;;18.73;63.12;98751.38;5102692;28;20824;-57
2023/10/28 09:01:22;;;;;;;0.22;0.22;;;;;;;18.84;65.29;98757.56;5091590;28;20103;-57
2023/10/28 09:03:52;;;;;;;0.20;0.20;;;;;;;18.67;63.80;98760.84;5093497;28;20162;-58
2023/10/28 09:06:19;;;;;;;0.20;0.20;;;;;;;18.51;65.35;98756.88;5112016;28;20544;-57
2023/10/28 09:08:45;;;;;;;0.30;0.30;;;;;;;18.14;66.25;98751.00;5107912;28;20024;-57
2023/10/28 09:11:11;;;;;;;0.20;0.20;;;;;;;17.96;66.16;98758.78;5101531;28;20035;-57
2023/10/28 09:13:38;;;;;;;0.20;0.20;;;;;;;17.90;67.58;98759.28;5098666;28;20407;-57
2023/10/28 09:16:04;;;;;;;0.30;0.30;;;;;;;17.80;67.60;98760.16;5091571;28;20028;-58
2023/10/28 09:18:38;;;;;;;0.30;0.30;;;;;;;17.79;69.02;98759.28;5098543;28;20024;-58
2023/10/28 09:21:05;;;;;;;0.30;0.30;;;;;;;17.83;69.49;98750.00;5111691;28;20023;-57
2023/10/28 09:23:30;;;;;;;0.28;0.28;;;;;;;17.87;69.86;98751.47;5108004;28;20054;-58
2023/10/28 09:25:56;;;;;;;0.30;0.30;;;;;;;18.06;69.95;98753.47;5111029;28;20371;-57
2023/10/28 09:28:22;;;;;;;0.25;0.25;;;;;;;18.09;68.90;98746.00;5092754;28;20032;-57
2023/10/28 09:30:48;;;;;;;0.30;0.30;;;;;;;17.98;67.32;98754.13;5092619;28;20111;-58
2023/10/28 09:33:17;;;;;;;0.30;0.30;;;;;;;17.80;66.74;98749.41;5088926;28;20110;-58
2023/10/28 09:35:44;;;;;;;0.20;0.20;;;;;;;17.74;68.30;98753.44;5090947;28;20739;-57
2023/10/28 09:38:14;;;;;;;0.30;0.30;;;;;;;17.62;68.00;98761.66;5109820;28;20088;-57
2023/10/28 09:40:39;;;;;;;0.30;0.30;;;;;;;17.58;67.80;98752.09;5091416;28;20020;-58
2023/10/28 09:43:06;;;;;;;0.30;0.30;;;;;;;17.53;70.20;98747.13;5092459;28;20433;-58
2023/10/28 09:45:32;;;;;;;0.30;0.30;;;;;;;17.41;68.74;98748.09;5097726;28;20544;-57
2023/10/28 09:48:00;;;;;;;0.20;0.20;;;;;;;17.41;69.78;98742.72;5105296;28;20115;-58
2023/10/28 09:50:30;;;;;;;0.30;0.30;;;;;;;17.37;71.28;98749.31;5098131;28;20024;-57
2023/10/28 09:52:57;;;;;;;0.30;0.30;;;;;;;17.39;71.13;98744.66;5098975;28;20379;-57
2023/10/28 09:55:27;;;;;;;0.30;0.30;;;;;;;17.70;69.14;98751.13;5110816;28;20059;-58
2023/10/28 09:58:16;;;;;;;0.30;0.30;;;;;;;17.77;70.02;98741.59;5106495;28;20035;-57
2023/10/28 10:00:46;;;;;;;0.30;0.30;;;;;;;17.79;70.44;98747.69;5096583;28;20038;-58
2023/10/28 10:03:25;;;;;;;0.28;0.28;;;;;;;17.63;69.44;98750.78;5110835;28;20098;-58
2023/10/28 10:05:53;;;;;;;0.30;0.30;;;;;;;17.58;69.98;98742.22;5110600;28;20110;-58
2023/10/28 10:08:23;;;;;;;0.30;0.30;;;;;;;17.50;71.03;98750.06;5106945;28;20028;-58
2023/10/28 10:10:50;;;;;;;0.30;0.30;;;;;;;17.39;71.00;98747.34;5102280;28;20027;-58
2023/10/28 10:13:16;;;;;;;0.20;0.20;;;;;;;17.35;72.50;98750.41;5110247;28;20108;-58
2023/10/28 10:15:51;;;;;;;0.30;0.30;;;;;;;17.21;71.92;98754.19;5106551;28;20040;-58
2023/10/28 10:18:40;;;;;;;0.30;0.30;;;;;;;17.26;71.37;98748.44;5091647;28;20142;-58
2023/10/28 10:21:22;;;;;;;0.30;0.30;;;;;;;17.20;70.51;98749.78;5095553;28;20518;-58
2023/10/28 10:23:52;;;;;;;0.30;0.30;;;;;;;17.17;70.30;98741.97;5103465;28;20023;-58
2023/10/28 10:26:33;;;;;;;0.32;0.32;;;;;;;17.23;71.07;98741.50;5106022;28;20432;-58
2023/10/28 10:29:00;;;;;;;0.30;0.30;;;;;;;17.38;71.89;98755.53;5109582;28;20085;-58
2023/10/28 10:31:34;;;;;;;0.40;0.40;;;;;;;17.26;71.80;98733.19;5106591;28;20039;-57
2023/10/28 10:34:01;;;;;;;0.40;0.40;;;;;;;17.28;70.58;98744.66;5089905;28;20035;-58
2023/10/28 10:36:28;;;;;;;0.30;0.30;;;;;;;17.29;70.59;98741.00;5070147;28;20038;-58
2023/10/28 10:38:54;;;;;;;0.30;0.30;;;;;;;17.29;71.35;98732.94;5093432;28;20032;-58
2023/10/28 10:41:27;;;;;;;0.30;0.30;;;;;;;17.32;70.34;98745.25;5090370;28;20043;-58
2023/10/28 10:43:53;;;;;;;0.30;0.30;;;;;;;17.29;69.79;98743.69;5089032;28;20024;-58
2023/10/28 10:46:18;;;;;;;0.30;0.30;;;;;;;17.37;69.73;98741.22;5089558;28;20176;-58
2023/10/28 10:48:44;;;;;;;0.30;0.30;;;;;;;17.41;71.58;98740.03;5100061;28;20476;-58
2023/10/28 10:51:11;;;;;;;0.30;0.30;;;;;;;17.40;70.99;98751.72;5093853;28;20040;-58
2023/10/28 10:53:43;;;;;;;0.30;0.30;;;;;;;17.32;70.99;98751.50;5089586;28;20145;-57
2023/10/28 10:56:28;;;;;;;0.30;0.30;;;;;;;17.34;71.34;98749.56;5089928;28;20019;-58
2023/10/28 10:58:54;;;;;;;0.30;0.30;;;;;;;17.35;72.33;98748.56;5089401;28;20052;-58
2023/10/28 11:01:19;;;;;;;0.35;0.35;;;;;;;17.27;72.67;98748.31;5089151;28;20107;-58
2023/10/28 11:03:45;;;;;;;0.20;0.20;;;;;;;17.16;72.38;98745.66;5090571;28;20078;-58
2023/10/28 11:06:11;;;;;;;0.40;0.40;;;;;;;17.04;72.23;98744.78;5089511;28;20034;-57
2023/10/28 11:08:36;;;;;;;0.30;0.30;;;;;;;17.12;73.01;98743.31;5091049;28;20077;-58
2023/10/28 11:11:03;;;;;;;0.30;0.30;;;;;;;16.65;74.91;98744.34;5088495;28;20150;-58
2023/10/28 11:13:29;;;;;;;0.30;0.30;;;;;;;16.55;76.20;98738.84;5090925;28;20064;-58
2023/10/28 11:15:55;;;;;;;0.30;0.30;;;;;;;16.51;76.80;98736.47;5088619;28;20138;-58
2023/10/28 11:18:21;;;;;;;0.30;0.30;;;;;;;16.49;75.29;98749.19;5088857;28;20130;-58
2023/10/28 11:20:49;;;;;;;0.30;0.30;;;;;;;16.49;76.14;98754.56;5098797;28;20042;-58
2023/10/28 11:23:16;;;;;;;0.30;0.30;;;;;;;16.51;77.56;98760.66;5107549;28;20031;-58
2023/10/28 11:25:47;;;;;;;0.30;0.30;;;;;;;16.50;76.88;98767.00;5087783;28;20028;-58
2023/10/28 11:28:12;;;;;;;0.40;0.40;;;;;;;16.54;77.42;98763.13;5105450;28;20020;-58